Time;durP1;ratioP1;P1;durP2;ratioP2;P2;SDS_P1;SDS_P2;PMS_P1;PMS_P2;Temp;Humidity;BMP_temperature;BMP_pressure;BME280_temperature;BME280_humidity;BME280_pressure;Samples;Min_cycle;Max_cycle;Signal;HPM_P1;HPM_P2
2022/06/26 00:02:02;;;;;;;6.40;4.80;;;23.20;99.90;;;;;;5088431;28;20377;-58
2022/06/26 00:04:28;;;;;;;5.37;4.97;;;23.30;99.90;;;;;;5089013;28;20484;-59
2022/06/26 00:06:55;;;;;;;6.30;5.63;;;23.20;99.90;;;;;;5087086;28;20810;-59
2022/06/26 00:09:21;;;;;;;6.82;5.25;;;23.10;99.90;;;;;;5087130;28;20394;-59
2022/06/26 00:11:47;;;;;;;6.13;5.07;;;23.10;99.90;;;;;;5089608;28;20517;-59
2022/06/26 00:14:12;;;;;;;5.97;5.47;;;23.10;99.90;;;;;;5089274;28;20397;-59
2022/06/26 00:16:38;;;;;;;5.67;5.07;;;23.10;99.90;;;;;;5087825;28;20382;-58
2022/06/26 00:19:04;;;;;;;5.63;5.07;;;23.10;99.90;;;;;;5088424;28;20382;-65
2022/06/26 00:21:29;;;;;;;6.77;5.70;;;23.00;99.90;;;;;;5088201;28;20793;-65
2022/06/26 00:23:55;;;;;;;6.05;5.43;;;23.10;99.90;;;;;;5088275;28;20412;-65
2022/06/26 00:26:20;;;;;;;5.73;5.13;;;23.10;99.90;;;;;;5086554;28;20413;-65
2022/06/26 00:28:46;;;;;;;7.88;5.47;;;23.10;99.90;;;;;;5088123;28;20382;-65
2022/06/26 00:31:11;;;;;;;5.93;5.33;;;23.10;99.90;;;;;;5086687;28;20652;-64
2022/06/26 00:33:37;;;;;;;7.87;5.50;;;23.10;99.90;;;;;;5090456;28;20386;-64
2022/06/26 00:36:03;;;;;;;5.90;5.40;;;23.10;99.90;;;;;;5072903;28;20770;-65
2022/06/26 00:38:28;;;;;;;6.07;5.47;;;23.10;99.90;;;;;;5089220;28;20385;-65
2022/06/26 00:40:54;;;;;;;5.80;5.30;;;22.90;99.90;;;;;;5089262;28;20390;-64
2022/06/26 00:43:19;;;;;;;7.20;5.77;;;22.90;99.90;;;;;;5088524;28;20454;-64
2022/06/26 00:45:45;;;;;;;6.37;5.67;;;22.90;99.90;;;;;;5088001;28;20385;-64
2022/06/26 00:48:10;;;;;;;5.93;5.33;;;22.90;99.90;;;;;;5089530;28;20451;-65
2022/06/26 00:50:36;;;;;;;7.30;5.60;;;22.90;99.90;;;;;;5088452;28;20382;-65
2022/06/26 00:53:02;;;;;;;5.90;5.40;;;22.80;99.90;;;;;;5086258;28;20450;-65
2022/06/26 00:55:28;;;;;;;5.80;5.30;;;22.80;99.90;;;;;;5086667;28;20443;-65
2022/06/26 00:57:55;;;;;;;6.15;5.55;;;22.80;99.90;;;;;;5087684;28;20389;-65
2022/06/26 01:00:23;;;;;;;5.93;5.43;;;22.80;99.90;;;;;;5088126;28;20456;-65
2022/06/26 01:02:49;;;;;;;6.32;5.72;;;22.70;99.90;;;;;;5086907;28;20451;-65
2022/06/26 01:05:15;;;;;;;6.63;5.80;;;22.70;99.90;;;;;;5084699;28;20755;-65
2022/06/26 01:07:40;;;;;;;5.80;5.30;;;22.70;99.90;;;;;;5085571;28;20386;-65
2022/06/26 01:10:06;;;;;;;5.95;5.35;;;22.70;99.90;;;;;;5088918;28;20413;-65
2022/06/26 01:12:32;;;;;;;6.47;5.88;;;22.70;99.90;;;;;;5087130;28;20599;-66
2022/06/26 01:15:00;;;;;;;6.70;6.00;;;22.70;99.90;;;;;;5086152;28;20431;-65
2022/06/26 01:17:26;;;;;;;5.90;5.30;;;22.70;99.90;;;;;;5085980;28;20454;-65
2022/06/26 01:19:52;;;;;;;5.88;5.38;;;22.70;99.90;;;;;;5084632;28;20500;-65
2022/06/26 01:22:17;;;;;;;6.95;5.50;;;22.70;99.90;;;;;;5085907;28;20485;-65
2022/06/26 01:24:43;;;;;;;5.97;5.40;;;22.70;99.90;;;;;;5087201;28;20400;-65
2022/06/26 01:27:09;;;;;;;6.20;5.60;;;22.60;99.90;;;;;;5086981;28;20727;-65
2022/06/26 01:29:34;;;;;;;7.43;5.75;;;22.70;99.90;;;;;;5086929;28;20386;-65
2022/06/26 01:32:00;;;;;;;6.70;5.55;;;22.70;99.90;;;;;;5088249;28;20410;-65
2022/06/26 01:34:25;;;;;;;6.07;5.43;;;22.70;99.90;;;;;;5090667;28;20397;-65
2022/06/26 01:36:51;;;;;;;6.47;5.70;;;22.60;99.90;;;;;;5088105;28;20400;-65
2022/06/26 01:39:20;;;;;;;6.47;5.87;;;22.60;99.90;;;;;;5088458;28;20477;-66
2022/06/26 01:41:47;;;;;;;6.40;5.80;;;22.60;99.90;;;;;;5089401;28;20402;-65
2022/06/26 01:44:13;;;;;;;6.18;5.68;;;22.60;99.90;;;;;;5088391;28;20472;-65
2022/06/26 01:46:38;;;;;;;6.93;6.22;;;22.60;99.90;;;;;;5089037;28;20481;-65
2022/06/26 01:49:04;;;;;;;6.90;6.20;;;22.60;99.90;;;;;;5088160;28;20661;-65
2022/06/26 01:51:29;;;;;;;6.30;5.60;;;22.50;99.90;;;;;;5089823;28;20459;-65
2022/06/26 01:53:55;;;;;;;7.07;5.40;;;22.50;99.90;;;;;;5087841;28;20387;-65
2022/06/26 01:56:21;;;;;;;6.10;5.50;;;22.50;99.90;;;;;;5085818;28;20385;-65
2022/06/26 01:58:46;;;;;;;6.63;6.03;;;22.50;99.90;;;;;;5086733;28;20469;-65
2022/06/26 02:01:12;;;;;;;7.27;6.57;;;22.50;99.90;;;;;;5086760;28;20378;-65
2022/06/26 02:03:37;;;;;;;6.63;6.13;;;22.40;99.90;;;;;;5086812;28;20665;-65
2022/06/26 02:06:03;;;;;;;6.10;5.60;;;22.40;99.90;;;;;;5084877;28;20665;-65
2022/06/26 02:08:29;;;;;;;6.70;5.95;;;22.40;99.90;;;;;;5085706;28;20386;-64
2022/06/26 02:13:42;;;;;;;6.53;6.03;;;22.40;99.90;;;;;;5088003;28;20580;-65
2022/06/26 02:16:19;;;;;;;6.68;6.07;;;22.50;99.90;;;;;;5089021;28;20781;-65
2022/06/26 02:18:48;;;;;;;6.43;5.93;;;22.50;99.90;;;;;;5090266;28;20377;-65
2022/06/26 02:21:16;;;;;;;6.82;6.22;;;22.50;99.90;;;;;;5092086;28;20882;-65
2022/06/26 02:23:44;;;;;;;6.32;5.78;;;22.40;99.90;;;;;;5090347;28;20421;-65
2022/06/26 02:26:10;;;;;;;6.97;6.35;;;22.40;99.90;;;;;;5088916;28;20389;-64
2022/06/26 02:28:37;;;;;;;6.40;5.90;;;22.40;99.90;;;;;;5089763;28;20419;-64
2022/06/26 02:31:03;;;;;;;7.18;5.68;;;22.40;99.90;;;;;;5091545;28;20870;-65
2022/06/26 02:33:29;;;;;;;6.63;6.03;;;22.40;99.90;;;;;;5093930;28;20386;-65
2022/06/26 02:35:55;;;;;;;7.22;6.53;;;22.40;99.90;;;;;;5093872;28;20370;-65
2022/06/26 02:38:24;;;;;;;6.90;6.30;;;22.40;99.90;;;;;;5091881;28;20446;-65
2022/06/26 02:40:50;;;;;;;7.22;6.43;;;22.30;99.90;;;;;;5093362;28;20649;-65
2022/06/26 02:43:18;;;;;;;6.38;5.78;;;22.20;99.90;;;;;;5093969;28;20398;-65
2022/06/26 02:45:45;;;;;;;6.85;6.25;;;22.20;99.90;;;;;;5092059;28;20370;-65
2022/06/26 02:48:10;;;;;;;7.35;6.65;;;22.20;99.90;;;;;;5091900;28;20481;-65
2022/06/26 02:50:36;;;;;;;6.70;6.10;;;22.20;99.90;;;;;;5092188;28;20460;-65
2022/06/26 02:53:02;;;;;;;7.10;6.50;;;22.20;99.90;;;;;;5089929;28;20497;-65
2022/06/26 02:55:28;;;;;;;6.43;5.90;;;22.20;99.90;;;;;;5089154;28;20391;-65
2022/06/26 02:57:54;;;;;;;6.50;6.00;;;22.20;99.90;;;;;;5086787;28;20488;-65
2022/06/26 03:00:19;;;;;;;7.00;6.40;;;22.20;99.90;;;;;;5088921;28;20790;-65
2022/06/26 03:02:45;;;;;;;8.00;6.17;;;22.20;99.90;;;;;;5089425;28;20405;-65
2022/06/26 03:05:11;;;;;;;6.90;6.20;;;22.10;99.90;;;;;;5090647;28;20541;-65
2022/06/26 03:07:37;;;;;;;7.25;6.65;;;22.10;99.90;;;;;;5092684;28;20766;-65
2022/06/26 03:10:03;;;;;;;7.73;6.27;;;22.10;99.90;;;;;;5090703;28;20389;-65
2022/06/26 03:12:28;;;;;;;6.80;6.20;;;22.10;99.90;;;;;;5089934;28;20513;-65
2022/06/26 03:14:54;;;;;;;6.53;6.00;;;22.10;99.90;;;;;;5089704;28;20477;-65
2022/06/26 03:17:20;;;;;;;6.40;5.90;;;22.20;99.90;;;;;;5089553;28;20457;-65
2022/06/26 03:19:46;;;;;;;7.43;6.65;;;22.10;99.90;;;;;;5088929;28;20377;-65
2022/06/26 03:22:12;;;;;;;7.72;7.07;;;22.10;99.90;;;;;;5091498;28;20468;-65
2022/06/26 03:24:38;;;;;;;6.77;6.17;;;22.00;99.90;;;;;;5092197;28;20792;-64
2022/06/26 03:27:04;;;;;;;7.30;6.60;;;22.00;99.90;;;;;;5090467;28;20401;-65
2022/06/26 03:29:29;;;;;;;6.90;6.30;;;21.90;99.90;;;;;;5089840;28;20443;-65
2022/06/26 03:31:55;;;;;;;6.57;6.07;;;22.00;99.90;;;;;;5089674;28;20484;-65
2022/06/26 03:34:21;;;;;;;7.18;6.50;;;22.00;99.90;;;;;;5090912;28;20386;-65
2022/06/26 03:36:47;;;;;;;7.27;6.57;;;22.00;99.90;;;;;;5091367;28;20428;-65
2022/06/26 03:39:12;;;;;;;7.70;7.00;;;22.00;99.90;;;;;;5092884;28;20386;-65
2022/06/26 03:41:38;;;;;;;7.57;6.80;;;21.90;99.90;;;;;;5093202;28;20899;-64
2022/06/26 03:44:04;;;;;;;7.53;6.80;;;21.80;99.90;;;;;;5093311;28;20412;-65
2022/06/26 03:46:30;;;;;;;7.33;6.63;;;21.80;99.90;;;;;;5093283;28;20382;-65
2022/06/26 03:48:55;;;;;;;7.05;6.38;;;21.80;99.90;;;;;;5092644;28;20445;-64
2022/06/26 03:51:21;;;;;;;7.10;6.40;;;21.80;99.90;;;;;;5092151;28;20692;-65
2022/06/26 03:53:47;;;;;;;7.40;6.75;;;21.80;99.90;;;;;;5091899;28;20390;-65
2022/06/26 03:56:12;;;;;;;7.40;6.70;;;21.80;99.90;;;;;;5091786;28;20384;-65
2022/06/26 03:58:38;;;;;;;7.43;6.83;;;21.80;99.90;;;;;;5090377;28;20373;-64
2022/06/26 04:01:03;;;;;;;7.00;6.40;;;21.80;99.90;;;;;;5090446;28;20426;-64
2022/06/26 04:03:29;;;;;;;7.67;7.00;;;21.80;99.90;;;;;;5089553;28;20651;-65
2022/06/26 04:05:54;;;;;;;7.18;6.50;;;21.80;99.90;;;;;;5092519;28;20583;-64
2022/06/26 04:08:20;;;;;;;7.23;6.63;;;21.80;99.90;;;;;;5094026;28;20627;-64
2022/06/26 04:10:46;;;;;;;7.93;7.13;;;21.70;99.90;;;;;;5091943;28;20393;-64
2022/06/26 04:13:12;;;;;;;8.63;7.00;;;21.80;99.90;;;;;;5092753;28;20647;-65
2022/06/26 04:15:39;;;;;;;7.30;6.70;;;21.70;99.90;;;;;;5091973;28;20389;-64
2022/06/26 04:18:06;;;;;;;8.40;7.13;;;21.70;99.90;;;;;;5092934;28;20400;-64
2022/06/26 04:20:31;;;;;;;8.00;7.22;;;21.70;99.90;;;;;;5092415;28;20471;-65
2022/06/26 04:23:03;;;;;;;7.47;6.87;;;21.70;99.90;;;;;;5092770;28;20789;-65
2022/06/26 04:25:30;;;;;;;8.13;7.43;;;21.70;99.90;;;;;;5092431;28;20382;-65
2022/06/26 04:27:57;;;;;;;7.90;7.10;;;21.70;99.90;;;;;;5091764;28;20431;-64
2022/06/26 04:30:23;;;;;;;8.10;7.40;;;21.70;99.90;;;;;;5088642;28;20650;-65
2022/06/26 04:32:49;;;;;;;7.57;6.80;;;21.70;99.90;;;;;;5091145;28;20661;-64
2022/06/26 04:35:15;;;;;;;7.70;6.88;;;21.70;99.90;;;;;;5091394;28;20728;-65
2022/06/26 04:37:42;;;;;;;8.57;7.78;;;21.70;99.90;;;;;;5090055;28;20381;-65
2022/06/26 04:40:10;;;;;;;7.80;7.00;;;21.60;99.90;;;;;;5088003;28;20375;-65
2022/06/26 04:42:36;;;;;;;8.02;7.32;;;21.70;99.90;;;;;;5086520;28;20398;-65
2022/06/26 04:45:03;;;;;;;7.07;6.47;;;21.70;99.90;;;;;;5083378;28;20382;-65
2022/06/26 04:47:28;;;;;;;8.37;7.67;;;21.70;99.90;;;;;;5081637;28;20536;-65
2022/06/26 04:49:54;;;;;;;8.10;7.30;;;21.70;99.90;;;;;;5085061;28;20560;-64
2022/06/26 04:52:19;;;;;;;7.83;7.03;;;21.70;99.90;;;;;;5085733;28;20667;-64
2022/06/26 04:54:45;;;;;;;7.00;6.40;;;21.70;99.90;;;;;;5083543;28;20451;-65
2022/06/26 04:57:11;;;;;;;8.40;7.60;;;21.80;99.90;;;;;;5084312;28;20487;-65
2022/06/26 04:59:37;;;;;;;7.63;6.93;;;21.80;99.90;;;;;;5085124;28;20682;-65
2022/06/26 05:02:04;;;;;;;8.20;7.50;;;21.80;99.90;;;;;;5084520;28;20471;-65
2022/06/26 05:04:30;;;;;;;8.00;7.20;;;21.80;99.90;;;;;;5087111;28;20904;-64
2022/06/26 05:06:55;;;;;;;8.67;7.97;;;21.80;99.90;;;;;;5087788;28;20479;-64
2022/06/26 05:09:22;;;;;;;7.90;7.20;;;21.70;99.90;;;;;;5088914;28;20512;-64
2022/06/26 05:11:48;;;;;;;8.05;7.30;;;21.60;99.90;;;;;;5090781;28;20417;-64
2022/06/26 05:14:15;;;;;;;7.10;6.50;;;21.70;99.90;;;;;;5088775;28;20679;-64
2022/06/26 05:16:40;;;;;;;8.60;7.00;;;21.80;99.90;;;;;;5088654;28;20382;-65
2022/06/26 05:19:06;;;;;;;8.93;6.90;;;21.80;99.90;;;;;;5089906;28;20400;-64
2022/06/26 05:21:32;;;;;;;7.20;6.50;;;21.90;99.90;;;;;;5089724;28;20401;-64
2022/06/26 05:23:57;;;;;;;7.30;6.57;;;22.00;99.90;;;;;;5087882;28;20378;-64
2022/06/26 05:26:23;;;;;;;6.95;6.35;;;22.00;99.90;;;;;;5086524;28;20408;-64
2022/06/26 05:28:49;;;;;;;6.30;5.70;;;22.10;99.90;;;;;;5085262;28;20401;-64
2022/06/26 05:31:15;;;;;;;7.63;6.87;;;22.20;99.90;;;;;;5086771;28;20659;-64
2022/06/26 05:33:41;;;;;;;6.68;6.07;;;22.20;99.90;;;;;;5087555;28;20402;-64
2022/06/26 05:36:07;;;;;;;6.57;6.00;;;22.20;99.90;;;;;;5087446;28;20466;-64
2022/06/26 05:38:34;;;;;;;6.77;6.17;;;22.30;99.90;;;;;;5088269;28;20382;-64
2022/06/26 05:41:00;;;;;;;6.20;5.60;;;22.30;99.90;;;;;;5086088;28;20386;-64
2022/06/26 05:43:25;;;;;;;7.30;6.70;;;22.40;99.90;;;;;;5084875;28;20376;-64
2022/06/26 05:45:51;;;;;;;7.17;6.53;;;22.40;99.90;;;;;;5087465;28;20769;-64
2022/06/26 05:48:17;;;;;;;6.68;6.07;;;22.30;99.90;;;;;;5087872;28;20430;-64
2022/06/26 05:50:42;;;;;;;6.53;5.93;;;22.40;99.90;;;;;;5088078;28;20397;-64
2022/06/26 05:53:08;;;;;;;5.77;5.30;;;22.50;99.90;;;;;;5093732;28;20996;-64
2022/06/26 05:55:33;;;;;;;6.40;5.88;;;22.60;99.90;;;;;;5093700;28;20381;-64
2022/06/26 05:57:59;;;;;;;7.67;6.30;;;22.70;99.90;;;;;;5093564;28;20701;-64
2022/06/26 06:00:25;;;;;;;5.90;5.33;;;22.60;99.90;;;;;;5094182;28;20827;-64
2022/06/26 06:02:51;;;;;;;5.93;5.43;;;22.70;99.90;;;;;;5090495;28;20708;-64
2022/06/26 06:05:17;;;;;;;6.50;6.00;;;22.80;99.90;;;;;;5089676;28;20606;-64
2022/06/26 06:07:42;;;;;;;6.50;5.90;;;22.80;99.90;;;;;;5090744;28;20390;-65
2022/06/26 06:10:09;;;;;;;5.72;5.20;;;22.80;99.90;;;;;;5089546;28;20377;-64
2022/06/26 06:12:35;;;;;;;5.10;4.70;;;22.90;99.90;;;;;;5091013;28;20941;-64
2022/06/26 06:15:01;;;;;;;5.03;4.60;;;22.90;99.90;;;;;;5090565;28;20390;-64
2022/06/26 06:17:36;;;;;;;5.00;4.60;;;23.00;99.90;;;;;;5090813;28;20466;-64
2022/06/26 06:20:08;;;;;;;5.40;4.93;;;23.00;99.90;;;;;;5089046;28;20382;-64
2022/06/26 06:22:34;;;;;;;5.22;4.72;;;23.00;99.90;;;;;;5089564;28;20396;-64
2022/06/26 06:24:59;;;;;;;6.27;5.27;;;23.00;99.90;;;;;;5091554;28;20382;-64
2022/06/26 06:27:25;;;;;;;5.40;4.90;;;23.00;99.90;;;;;;5093586;28;20401;-64
2022/06/26 06:29:51;;;;;;;4.67;4.27;;;23.00;99.90;;;;;;5094645;28;20421;-64
2022/06/26 06:32:16;;;;;;;5.20;4.80;;;23.00;99.90;;;;;;5094608;28;20402;-64
2022/06/26 06:34:42;;;;;;;5.63;5.03;;;23.10;99.90;;;;;;5093246;28;20382;-64
2022/06/26 06:37:08;;;;;;;6.25;4.72;;;23.10;99.90;;;;;;5086174;28;20655;-64
2022/06/26 06:39:33;;;;;;;6.32;5.18;;;23.10;99.90;;;;;;5087781;28;20796;-64
2022/06/26 06:41:59;;;;;;;4.50;4.20;;;23.10;99.90;;;;;;5082776;28;20495;-64
2022/06/26 06:44:25;;;;;;;5.53;5.00;;;23.10;99.90;;;;;;5086660;28;20451;-64
2022/06/26 06:46:50;;;;;;;5.23;4.83;;;23.20;99.90;;;;;;5083195;28;20402;-64
2022/06/26 06:49:16;;;;;;;6.22;5.10;;;23.20;99.90;;;;;;5081621;28;20469;-64
2022/06/26 06:51:41;;;;;;;5.27;4.77;;;23.20;99.90;;;;;;5081226;28;20402;-64
2022/06/26 06:54:07;;;;;;;4.78;4.43;;;23.30;99.90;;;;;;5081694;28;20462;-64
2022/06/26 06:56:32;;;;;;;4.40;4.00;;;23.30;99.90;;;;;;5082039;28;20545;-64
2022/06/26 06:58:58;;;;;;;4.90;4.50;;;23.40;99.90;;;;;;5083133;28;20374;-64
2022/06/26 07:01:24;;;;;;;4.70;4.30;;;23.40;99.90;;;;;;5083182;28;20375;-64
2022/06/26 07:03:49;;;;;;;4.75;4.30;;;23.50;99.90;;;;;;5081913;28;20402;-64
2022/06/26 07:06:15;;;;;;;5.10;4.40;;;23.50;99.90;;;;;;5079517;28;20620;-64
2022/06/26 07:08:40;;;;;;;4.97;4.47;;;23.60;99.90;;;;;;5080173;28;20740;-64
2022/06/26 07:11:06;;;;;;;5.97;4.67;;;23.50;99.90;;;;;;5080726;28;20398;-64
2022/06/26 07:13:31;;;;;;;6.70;4.53;;;23.60;99.90;;;;;;5084248;28;20578;-64
2022/06/26 07:15:57;;;;;;;5.03;4.60;;;23.60;99.90;;;;;;5082115;28;20370;-64
2022/06/26 07:18:24;;;;;;;4.28;3.88;;;23.70;99.90;;;;;;5081674;28;20469;-64
2022/06/26 07:20:50;;;;;;;5.10;4.60;;;23.70;99.90;;;;;;5084756;28;20824;-64
2022/06/26 07:23:16;;;;;;;4.13;3.73;;;23.80;99.90;;;;;;5082161;28;20382;-64
2022/06/26 07:25:42;;;;;;;6.85;4.90;;;23.90;99.90;;;;;;5081947;28;20772;-64
2022/06/26 07:28:08;;;;;;;4.70;4.30;;;23.90;99.90;;;;;;5081168;28;20824;-64
2022/06/26 07:30:34;;;;;;;4.03;3.70;;;23.90;99.90;;;;;;5081076;28;20483;-64
2022/06/26 07:33:04;;;;;;;5.72;5.20;;;24.10;99.90;;;;;;5078181;28;20728;-64
2022/06/26 07:35:30;;;;;;;5.50;4.43;;;24.00;99.90;;;;;;5078672;28;20408;-64
2022/06/26 07:37:56;;;;;;;5.20;4.80;;;24.10;99.90;;;;;;5079952;28;20390;-63
2022/06/26 07:40:21;;;;;;;4.47;4.00;;;24.00;99.90;;;;;;5081225;28;20914;-64
2022/06/26 07:42:47;;;;;;;4.40;4.00;;;24.10;99.90;;;;;;5077247;28;20404;-64
2022/06/26 07:45:12;;;;;;;5.07;4.53;;;24.10;99.90;;;;;;5078938;28;20480;-63
2022/06/26 07:47:38;;;;;;;6.40;4.67;;;24.20;99.90;;;;;;5081374;28;20758;-63
2022/06/26 07:50:04;;;;;;;4.72;4.10;;;24.30;99.90;;;;;;5082640;28;20793;-63
2022/06/26 07:52:30;;;;;;;5.10;4.45;;;24.30;99.90;;;;;;5082615;28;20394;-63
2022/06/26 07:54:55;;;;;;;5.10;4.60;;;24.40;99.90;;;;;;5083355;28;20419;-63
2022/06/26 07:57:21;;;;;;;4.90;4.47;;;24.40;99.90;;;;;;5084184;28;20405;-63
2022/06/26 07:59:47;;;;;;;5.03;4.53;;;24.40;99.90;;;;;;5083189;28;20397;-64
2022/06/26 08:02:13;;;;;;;4.10;3.57;;;24.50;99.90;;;;;;5084337;28;20389;-64
2022/06/26 08:04:38;;;;;;;4.85;4.40;;;24.50;99.90;;;;;;5084450;28;20786;-64
2022/06/26 08:07:04;;;;;;;5.17;4.57;;;24.70;99.90;;;;;;5083698;28;20554;-64
2022/06/26 08:09:30;;;;;;;5.10;4.57;;;24.80;99.90;;;;;;5062171;28;20694;-64
2022/06/26 08:11:55;;;;;;;4.05;3.75;;;24.80;99.90;;;;;;5081168;28;20405;-64
2022/06/26 08:14:21;;;;;;;3.60;3.40;;;24.80;99.90;;;;;;5062998;28;20616;-64
2022/06/26 08:16:46;;;;;;;4.13;3.83;;;24.90;99.90;;;;;;5064438;28;20382;-64
2022/06/26 08:19:12;;;;;;;6.17;4.63;;;25.10;99.90;;;;;;5065938;28;20782;-64
2022/06/26 08:24:21;;;;;;;4.90;4.43;;;25.00;99.90;;;;;;5084159;28;20443;-64
2022/06/26 08:26:47;;;;;;;5.18;4.68;;;25.20;99.90;;;;;;5066025;28;20448;-64
2022/06/26 08:29:12;;;;;;;4.57;4.17;;;25.30;99.90;;;;;;5066668;28;20651;-64
2022/06/26 08:31:38;;;;;;;4.57;4.18;;;25.40;99.90;;;;;;5085476;28;20625;-64
2022/06/26 08:34:04;;;;;;;4.35;3.90;;;25.40;99.90;;;;;;5065458;28;20737;-63
2022/06/26 08:36:29;;;;;;;4.43;4.03;;;25.50;99.90;;;;;;5063545;28;20704;-63
2022/06/26 08:38:55;;;;;;;4.97;4.30;;;25.60;99.90;;;;;;5062573;28;20439;-65
2022/06/26 08:41:27;;;;;;;5.33;3.10;;;25.70;99.90;;;;;;5067754;28;20773;-64
2022/06/26 08:43:54;;;;;;;2.70;2.42;;;25.80;99.90;;;;;;5067486;28;20386;-64
2022/06/26 08:46:23;;;;;;;5.70;2.40;;;25.80;99.90;;;;;;5085636;28;20377;-64
2022/06/26 08:48:52;;;;;;;5.00;2.47;;;25.80;99.90;;;;;;5070028;28;20436;-63
2022/06/26 08:51:19;;;;;;;3.03;2.05;;;25.80;99.90;;;;;;5070507;28;20496;-66
2022/06/26 08:53:45;;;;;;;2.03;1.90;;;25.80;99.90;;;;;;5064045;28;20382;-64
2022/06/26 08:56:11;;;;;;;2.45;1.90;;;25.90;99.90;;;;;;5070594;28;20382;-64
2022/06/26 08:58:37;;;;;;;2.72;2.00;;;26.00;99.90;;;;;;5072369;28;20374;-63
2022/06/26 09:01:04;;;;;;;2.90;1.73;;;26.10;99.90;;;;;;5088520;28;20385;-63
2022/06/26 09:03:32;;;;;;;1.75;1.63;;;26.20;99.90;;;;;;5071301;28;20955;-64
2022/06/26 09:05:57;;;;;;;2.22;2.00;;;26.10;99.90;;;;;;5089182;28;20413;-64
2022/06/26 09:08:25;;;;;;;2.20;1.80;;;26.20;99.90;;;;;;5071615;28;20390;-64
2022/06/26 09:10:51;;;;;;;1.90;1.80;;;26.10;99.90;;;;;;5068217;28;20382;-64
2022/06/26 09:13:17;;;;;;;2.60;1.80;;;26.20;99.90;;;;;;5068288;28;20402;-64
2022/06/26 09:15:44;;;;;;;2.25;2.00;;;26.20;99.90;;;;;;5070189;28;20470;-64
2022/06/26 09:18:11;;;;;;;2.20;1.95;;;26.10;99.90;;;;;;5067648;28;20382;-64
2022/06/26 09:20:50;;;;;;;2.60;2.00;;;26.20;99.90;;;;;;5067836;28;20481;-64
2022/06/26 09:23:15;;;;;;;3.20;2.10;;;26.20;99.90;;;;;;5071007;28;20454;-64
2022/06/26 09:25:43;;;;;;;4.10;2.33;;;26.20;99.90;;;;;;5073657;28;20374;-64
2022/06/26 09:28:21;;;;;;;2.05;1.90;;;26.20;99.90;;;;;;5077678;28;20405;-65
2022/06/26 09:31:07;;;;;;;2.80;2.20;;;26.30;99.90;;;;;;5094919;28;20662;-65
2022/06/26 09:33:35;;;;;;;2.85;2.28;;;26.30;99.90;;;;;;5074484;28;20418;-65
2022/06/26 09:36:04;;;;;;;4.30;2.45;;;26.40;99.90;;;;;;5075252;28;20408;-64
2022/06/26 09:38:32;;;;;;;3.40;2.10;;;26.30;99.90;;;;;;5074218;28;20378;-65
2022/06/26 09:41:06;;;;;;;4.30;2.50;;;26.30;99.90;;;;;;5073480;28;20370;-65
2022/06/26 09:43:45;;;;;;;2.63;2.30;;;26.30;99.90;;;;;;5074798;28;20476;-65
2022/06/26 09:46:13;;;;;;;3.70;2.38;;;26.40;99.90;;;;;;5072911;28;20401;-64
2022/06/26 09:48:41;;;;;;;2.78;2.47;;;26.40;99.90;;;;;;5072909;28;20385;-64
2022/06/26 09:51:09;;;;;;;2.17;1.90;;;26.60;99.90;;;;;;5090816;28;20380;-64
2022/06/26 09:53:35;;;;;;;2.58;2.33;;;26.70;99.90;;;;;;5090969;28;20382;-64
2022/06/26 09:56:01;;;;;;;5.05;2.80;;;26.70;99.90;;;;;;5074997;28;20859;-65
2022/06/26 09:58:29;;;;;;;4.67;2.87;;;26.70;99.90;;;;;;5091874;28;20417;-64
2022/06/26 10:06:31;;;;;;;3.40;2.80;;;26.90;99.90;;;;;;5094771;28;21225;-65
2022/06/26 10:09:07;;;;;;;3.63;2.70;;;27.00;99.90;;;;;;5077231;28;20397;-64
2022/06/26 10:11:35;;;;;;;3.10;2.50;;;26.90;99.90;;;;;;5078657;28;20410;-64
2022/06/26 10:14:11;;;;;;;4.85;2.80;;;26.90;99.90;;;;;;5078361;28;20417;-64
2022/06/26 10:17:08;;;;;;;5.07;2.60;;;26.90;99.90;;;;;;5097010;28;20388;-64
2022/06/26 10:20:15;;;;;;;3.33;2.60;;;26.90;99.90;;;;;;5079826;28;20403;-64
2022/06/26 10:22:43;;;;;;;5.10;2.58;;;27.10;99.90;;;;;;4993643;28;20397;-64
2022/06/26 10:25:22;;;;;;;3.28;2.58;;;27.10;99.90;;;;;;4975667;28;20489;-65
2022/06/26 10:27:47;;;;;;;4.10;2.70;;;27.00;99.90;;;;;;5032615;28;20478;-65
2022/06/26 10:30:15;;;;;;;4.53;2.50;;;26.90;99.90;;;;;;5077337;28;20719;-65
2022/06/26 10:32:44;;;;;;;3.05;2.33;;;26.80;99.90;;;;;;5077495;28;20406;-64
2022/06/26 10:35:12;;;;;;;2.70;2.50;;;26.80;99.90;;;;;;5074493;28;20412;-65
2022/06/26 10:37:43;;;;;;;2.35;2.15;;;26.80;99.90;;;;;;5072118;28;20413;-65
2022/06/26 10:43:13;;;;;;;4.88;2.42;;;26.90;99.90;;;;;;5066135;28;21032;-66
2022/06/26 10:45:41;;;;;;;2.60;2.20;;;26.90;99.90;;;;;;5061197;28;20390;-65
2022/06/26 10:48:18;;;;;;;2.35;2.00;;;26.80;99.90;;;;;;5068673;28;20374;-64
2022/06/26 10:50:45;;;;;;;5.18;2.30;;;26.90;99.90;;;;;;5068116;28;20389;-65
2022/06/26 10:53:30;;;;;;;2.90;1.60;;;27.00;99.90;;;;;;5065899;28;20406;-64
2022/06/26 10:56:02;;;;;;;2.78;1.83;;;27.00;99.90;;;;;;5063852;28;20374;-65
2022/06/26 10:58:35;;;;;;;3.25;1.70;;;27.00;99.90;;;;;;5066495;28;20390;-66
2022/06/26 11:01:04;;;;;;;3.28;2.47;;;27.10;99.90;;;;;;5068782;28;20378;-66
2022/06/26 11:36:08;;;;;;;3.80;3.40;;;27.10;99.90;;;;;;5021317;28;20709;-65
2022/06/26 11:38:35;;;;;;;4.85;3.97;;;27.10;99.90;;;;;;5007383;28;20394;-65
2022/06/26 11:41:03;;;;;;;5.57;3.78;;;27.10;99.90;;;;;;5008319;28;20431;-65
2022/06/26 11:43:29;;;;;;;6.65;4.20;;;27.10;99.90;;;;;;5008949;28;20496;-65
2022/06/26 11:46:00;;;;;;;4.40;3.80;;;27.10;99.90;;;;;;5007274;28;20383;-65
2022/06/26 11:48:26;;;;;;;4.28;3.88;;;27.00;99.90;;;;;;5027036;28;20411;-65
2022/06/26 11:50:54;;;;;;;3.97;3.53;;;26.90;99.90;;;;;;5011552;28;20387;-65
2022/06/26 11:53:30;;;;;;;4.97;3.63;;;26.90;99.90;;;;;;5013299;28;20387;-65
2022/06/26 11:56:03;;;;;;;4.40;3.30;;;26.90;99.90;;;;;;5027077;28;20383;-65
2022/06/26 11:58:33;;;;;;;5.30;3.55;;;27.00;99.90;;;;;;5010403;28;20486;-65
2022/06/26 12:01:10;;;;;;;5.00;3.70;;;27.00;99.90;;;;;;5010357;28;20387;-65
2022/06/26 12:03:48;;;;;;;4.45;3.60;;;26.90;99.90;;;;;;5028345;28;20395;-65
2022/06/26 12:06:28;;;;;;;7.18;3.88;;;27.00;99.90;;;;;;5044682;28;20394;-65
2022/06/26 12:08:53;;;;;;;5.43;3.47;;;27.00;99.90;;;;;;5028545;28;20445;-64
2022/06/26 12:11:19;;;;;;;4.77;3.50;;;27.10;99.90;;;;;;5042126;28;20565;-65
2022/06/26 12:13:44;;;;;;;4.87;4.30;;;27.20;99.90;;;;;;5018445;28;20839;-65
2022/06/26 12:16:11;;;;;;;5.05;3.65;;;27.50;99.90;;;;;;5001145;28;20548;-65
2022/06/26 12:18:41;;;;;;;3.93;3.40;;;27.90;99.90;;;;;;5017387;28;20688;-65
2022/06/26 12:21:21;;;;;;;4.03;3.10;;;28.20;99.90;;;;;;5002094;28;20469;-66
2022/06/26 12:23:49;;;;;;;4.78;4.38;;;28.40;99.90;;;;;;4999373;28;20515;-66
2022/06/26 12:26:22;;;;;;;3.22;2.92;;;28.30;99.90;;;;;;4997715;28;20584;-66
2022/06/26 12:29:00;;;;;;;6.00;4.10;;;28.40;99.90;;;;;;4996278;28;20598;-66
2022/06/26 12:31:26;;;;;;;3.45;3.15;;;28.60;99.90;;;;;;5002274;28;20566;-66
2022/06/26 12:33:52;;;;;;;4.72;3.55;;;29.10;99.90;;;;;;5003286;28;20663;-66
2022/06/26 12:36:17;;;;;;;5.22;3.80;;;29.20;99.90;;;;;;5022924;28;20745;-66
2022/06/26 12:38:44;;;;;;;3.80;3.50;;;29.50;99.90;;;;;;5004308;28;20806;-66
2022/06/26 12:41:17;;;;;;;5.65;3.95;;;29.60;99.90;;;;;;5021306;28;20460;-66
2022/06/26 12:43:53;;;;;;;3.88;3.47;;;29.80;99.90;;;;;;5027435;28;20383;-67
2022/06/26 12:46:19;;;;;;;4.37;3.90;;;29.90;99.90;;;;;;5012168;28;20469;-66
2022/06/26 12:48:45;;;;;;;4.37;3.97;;;29.70;99.90;;;;;;5013106;28;20410;-67
2022/06/26 12:51:12;;;;;;;4.68;3.80;;;29.20;99.90;;;;;;5012157;28;20391;-66
2022/06/26 12:53:38;;;;;;;4.20;3.20;;;28.70;99.90;;;;;;5030517;28;20421;-65
2022/06/26 12:56:05;;;;;;;4.30;3.20;;;28.50;99.90;;;;;;5012831;28;20399;-64
2022/06/26 12:58:32;;;;;;;4.45;3.67;;;28.50;99.90;;;;;;5012646;28;20395;-65
2022/06/26 13:00:58;;;;;;;4.53;4.13;;;28.50;99.90;;;;;;5011778;28;20495;-65
2022/06/26 13:03:23;;;;;;;4.88;3.28;;;28.40;99.90;;;;;;5028950;28;20525;-65
2022/06/26 13:05:49;;;;;;;4.73;2.97;;;28.20;99.90;;;;;;5006481;28;20798;-65
2022/06/26 13:08:15;;;;;;;6.17;3.70;;;28.30;99.90;;;;;;5020245;28;20774;-65
2022/06/26 13:10:42;;;;;;;3.35;3.05;;;28.60;99.90;;;;;;5036476;28;20394;-65
2022/06/26 13:13:08;;;;;;;3.92;3.53;;;29.00;99.90;;;;;;5037232;28;20391;-65
2022/06/26 13:15:34;;;;;;;3.92;3.42;;;29.00;99.90;;;;;;5035390;28;20383;-65
2022/06/26 13:18:00;;;;;;;3.08;2.70;;;29.10;99.90;;;;;;5036347;28;20440;-65
2022/06/26 13:20:26;;;;;;;5.70;3.53;;;29.30;99.90;;;;;;5036514;28;20395;-65
2022/06/26 13:22:53;;;;;;;4.00;3.30;;;29.50;99.90;;;;;;5056450;28;20413;-65
2022/06/26 13:25:20;;;;;;;3.47;3.17;;;29.50;99.90;;;;;;5031679;28;20968;-66
2022/06/26 13:27:46;;;;;;;5.30;3.05;;;29.70;99.90;;;;;;5038169;28;20393;-66
2022/06/26 13:30:11;;;;;;;5.13;3.10;;;29.80;99.90;;;;;;5013126;28;20485;-65
2022/06/26 13:32:37;;;;;;;3.15;2.70;;;29.50;99.90;;;;;;5045646;28;20496;-66
2022/06/26 13:35:04;;;;;;;3.22;2.83;;;29.70;99.90;;;;;;5040666;28;20427;-66